createdAt,value
2022-08-17T00:02:26.614Z,25.60
2022-08-17T00:04:59.206Z,28.20
2022-08-17T00:07:31.045Z,31.90
2022-08-17T00:10:03.688Z,28.90
2022-08-17T00:12:44.675Z,29.00
2022-08-17T00:15:17.217Z,27.80
2022-08-17T00:17:51.787Z,27.30
2022-08-17T00:20:32.088Z,24.60
2022-08-17T00:23:10.048Z,26.90
2022-08-17T00:25:43.435Z,29.20
2022-08-17T00:28:16.291Z,29.40
2022-08-17T00:30:53.125Z,29.10
2022-08-17T00:33:32.342Z,26.40
2022-08-17T00:36:06.113Z,28.40
2022-08-17T00:38:39.079Z,27.70
2022-08-17T00:41:15.260Z,27.90
2022-08-17T00:43:52.313Z,27.70
2022-08-17T00:46:26.398Z,27.20
2022-08-17T00:49:01.401Z,26.20
2022-08-17T00:51:38.602Z,26.60
2022-08-17T00:54:15.047Z,29.10
2022-08-17T00:56:51.754Z,27.40
2022-08-17T00:59:30.964Z,27.20
2022-08-17T01:02:06.655Z,29.60
2022-08-17T01:04:39.858Z,29.10
2022-08-17T01:07:12.303Z,28.30
2022-08-17T01:09:46.146Z,33.40
2022-08-17T01:12:18.225Z,31.70
2022-08-17T01:14:50.581Z,31.40
2022-08-17T01:17:22.462Z,28.40
2022-08-17T01:19:54.317Z,28.50
2022-08-17T01:22:26.894Z,29.10
2022-08-17T01:25:03.658Z,31.00
2022-08-17T01:27:37.094Z,30.50
2022-08-17T01:30:58.620Z,29.90
2022-08-17T01:33:04.873Z,28.00
2022-08-17T01:35:36.747Z,27.80
2022-08-17T01:38:09.534Z,30.60
2022-08-17T01:40:46.508Z,27.90
2022-08-17T01:43:24.204Z,28.60
2022-08-17T01:46:02.817Z,29.20
2022-08-17T01:48:40.673Z,31.10
2022-08-17T01:51:12.550Z,28.90
2022-08-17T01:53:48.937Z,27.10
2022-08-17T01:56:24.343Z,28.70
2022-08-17T01:58:57.196Z,26.10
2022-08-17T02:01:32.521Z,27.10
2022-08-17T02:04:05.303Z,30.40
2022-08-17T02:06:53.553Z,27.90
2022-08-17T02:09:29.875Z,27.90
2022-08-17T02:12:37.376Z,27.70
2022-08-17T02:14:56.051Z,30.90
2022-08-17T02:17:27.921Z,29.40
2022-08-17T02:19:59.755Z,29.50
2022-08-17T02:22:31.727Z,29.60
2022-08-17T02:25:05.557Z,31.30
2022-08-17T02:27:37.749Z,33.40
2022-08-17T02:31:02.049Z,28.00
2022-08-17T02:33:09.207Z,31.60
2022-08-17T02:35:42.082Z,32.20
2022-08-17T02:38:14.289Z,32.30
2022-08-17T02:40:47.683Z,30.10
2022-08-17T02:43:19.526Z,29.20
2022-08-17T02:45:51.695Z,28.50
2022-08-17T02:48:30.685Z,31.70
2022-08-17T02:51:03.971Z,29.30
2022-08-17T02:53:36.606Z,34.80
2022-08-17T02:56:08.886Z,31.40
2022-08-17T02:58:40.894Z,29.30
2022-08-17T03:01:13.435Z,32.50
2022-08-17T03:03:45.273Z,29.30
2022-08-17T03:06:17.100Z,27.30
2022-08-17T03:08:48.964Z,28.20
2022-08-17T03:11:21.010Z,31.30
2022-08-17T03:13:52.876Z,34.40
2022-08-17T03:16:24.720Z,32.30
2022-08-17T03:18:56.786Z,32.40
2022-08-17T03:21:28.698Z,31.60
2022-08-17T03:24:00.801Z,31.20
2022-08-17T03:26:38.841Z,31.30
2022-08-17T03:29:10.829Z,28.10
2022-08-17T03:31:42.747Z,28.30
2022-08-17T03:34:15.302Z,30.00
2022-08-17T03:36:47.146Z,28.20
2022-08-17T03:39:19.003Z,27.20
2022-08-17T03:41:50.813Z,28.50
2022-08-17T03:44:22.612Z,26.90
2022-08-17T03:47:12.426Z,30.40
2022-08-17T03:50:03.967Z,26.90
2022-08-17T03:52:55.855Z,27.10
2022-08-17T04:13:02.437Z,28.20
2022-08-17T04:15:34.691Z,27.30
2022-08-17T04:18:07.750Z,27.00
2022-08-17T04:20:43.346Z,26.10
2022-08-17T04:23:17.119Z,26.60
2022-08-17T04:25:51.628Z,28.50
2022-08-17T04:28:23.832Z,26.20
2022-08-17T04:30:55.873Z,29.60
2022-08-17T04:33:31.045Z,29.30
2022-08-17T04:36:07.844Z,28.40
2022-08-17T04:38:44.132Z,30.10
2022-08-17T04:41:34.910Z,31.80
2022-08-17T04:44:08.877Z,31.60
2022-08-17T04:46:41.252Z,29.00
2022-08-17T04:49:14.256Z,34.30
2022-08-17T04:51:55.660Z,32.70
2022-08-17T04:54:29.015Z,30.80
2022-08-17T04:57:00.850Z,34.30
2022-08-17T04:59:32.831Z,32.10
2022-08-17T05:02:04.718Z,33.70
2022-08-17T05:04:36.568Z,30.90
2022-08-17T05:07:08.631Z,32.00
2022-08-17T05:09:40.477Z,30.30
2022-08-17T05:12:12.279Z,34.00
2022-08-17T05:14:44.130Z,33.10
2022-08-17T05:17:16.266Z,34.00
2022-08-17T05:19:52.003Z,32.30
2022-08-17T05:22:26.567Z,35.10
2022-08-17T05:24:58.622Z,32.30
2022-08-17T05:27:35.501Z,32.70
2022-08-17T05:30:09.657Z,31.80
2022-08-17T05:32:41.525Z,32.80
2022-08-17T05:35:15.758Z,35.70
2022-08-17T05:37:50.924Z,33.80
2022-08-17T05:41:17.112Z,36.50
2022-08-17T05:43:53.002Z,36.10
2022-08-17T05:46:31.634Z,34.20
2022-08-17T05:49:08.425Z,33.40
2022-08-17T05:52:19.861Z,39.30
2022-08-17T05:55:06.109Z,37.50
2022-08-17T05:57:53.712Z,36.20
2022-08-17T06:00:30.738Z,38.80
2022-08-17T06:03:27.052Z,35.90
2022-08-17T06:06:08.560Z,35.20
2022-08-17T06:08:52.014Z,38.40
2022-08-17T06:11:31.182Z,37.60
2022-08-17T06:14:17.377Z,36.50
2022-08-17T06:16:56.146Z,36.60
2022-08-17T06:19:34.605Z,37.10
2022-08-17T06:22:09.699Z,38.80
2022-08-17T06:24:47.682Z,38.10
2022-08-17T06:27:25.508Z,40.10
2022-08-17T06:30:05.528Z,39.40
2022-08-17T06:32:39.112Z,38.50
2022-08-17T06:35:15.738Z,37.40
2022-08-17T06:37:59.413Z,37.40
2022-08-17T06:41:00.134Z,38.00
2022-08-17T06:43:48.187Z,40.50
2022-08-17T06:46:26.134Z,40.40
2022-08-17T06:49:12.367Z,40.90
2022-08-17T06:51:50.640Z,39.60
2022-08-17T06:54:35.096Z,40.30
2022-08-17T07:00:40.797Z,37.50
2022-08-17T07:03:21.013Z,39.80
2022-08-17T07:05:55.989Z,42.20
2022-08-17T07:08:35.424Z,40.20
2022-08-17T07:11:13.134Z,38.90
2022-08-17T07:13:52.057Z,39.50
2022-08-17T07:16:29.178Z,37.80
2022-08-17T07:19:01.253Z,38.50
2022-08-17T07:21:46.131Z,38.10
2022-08-17T07:24:31.032Z,37.80
2022-08-17T07:27:16.514Z,38.90
2022-08-17T07:29:52.054Z,39.20
2022-08-17T07:32:27.393Z,40.50
2022-08-17T07:35:15.404Z,39.20
2022-08-17T07:37:53.225Z,37.00
2022-08-17T07:40:33.484Z,36.10
2022-08-17T07:43:13.057Z,34.00
2022-08-17T07:46:16.866Z,31.70
2022-08-17T07:48:50.855Z,29.50
2022-08-17T07:51:31.856Z,33.10
2022-08-17T07:54:22.708Z,31.90
2022-08-17T07:56:57.669Z,30.40
2022-08-17T07:59:33.832Z,31.90
2022-08-17T08:02:31.677Z,26.70
2022-08-17T08:05:30.828Z,20.20
2022-08-17T08:08:23.677Z,20.80
2022-08-17T08:11:06.371Z,19.70
2022-08-17T08:13:42.779Z,24.30
2022-08-17T08:16:30.209Z,23.90
2022-08-17T08:19:03.400Z,21.30
2022-08-17T08:21:47.773Z,18.80
2022-08-17T08:24:37.525Z,22.30
2022-08-17T08:27:19.852Z,21.40
2022-08-17T08:29:58.391Z,21.30
2022-08-17T08:32:57.229Z,17.00
2022-08-17T08:35:34.605Z,19.80
2022-08-17T08:38:15.803Z,15.90
2022-08-17T08:41:03.468Z,15.50
2022-08-17T08:43:50.791Z,18.70
2022-08-17T08:46:35.456Z,16.70
2022-08-17T08:49:59.557Z,15.50
2022-08-17T08:52:39.600Z,15.50
2022-08-17T08:55:19.371Z,16.00
2022-08-17T08:57:57.967Z,17.30
2022-08-17T09:00:35.923Z,16.80
2022-08-17T09:03:31.562Z,16.00
2022-08-17T09:06:37.359Z,15.60
2022-08-17T09:09:26.638Z,13.90
2022-08-17T09:12:05.509Z,14.40
2022-08-17T09:14:45.152Z,17.20
2022-08-17T09:17:23.072Z,18.90
2022-08-17T09:20:00.409Z,18.30
2022-08-17T09:22:37.518Z,15.30
2022-08-17T09:25:14.788Z,16.10
2022-08-17T09:27:57.520Z,13.30
2022-08-17T09:30:42.605Z,14.30
2022-08-17T09:33:18.397Z,10.90
2022-08-17T09:35:54.886Z,13.00
2022-08-17T09:38:33.138Z,12.10
2022-08-17T09:41:14.956Z,13.20
2022-08-17T09:43:54.635Z,13.70
2022-08-17T09:46:30.778Z,11.80
2022-08-17T09:49:09.799Z,12.30
2022-08-17T09:51:48.748Z,13.60
2022-08-17T09:54:42.773Z,11.40
2022-08-17T09:57:31.064Z,11.40
2022-08-17T10:00:17.185Z,12.10
2022-08-17T10:03:18.051Z,10.70
2022-08-17T10:06:09.055Z,11.10
2022-08-17T10:08:52.691Z,10.20
2022-08-17T10:11:50.262Z,10.40
2022-08-17T10:14:43.830Z,10.10
2022-08-17T10:17:26.278Z,10.40
2022-08-17T10:20:07.051Z,14.10
2022-08-17T10:23:04.988Z,10.80
2022-08-17T10:26:01.527Z,9.70
2022-08-17T10:28:40.523Z,10.60
2022-08-17T10:31:39.479Z,9.20
2022-08-17T10:34:49.148Z,9.70
2022-08-17T10:37:48.176Z,10.80
2022-08-17T10:40:32.591Z,11.60
2022-08-17T10:43:20.258Z,9.80
2022-08-17T10:46:10.308Z,10.20
2022-08-17T10:49:25.779Z,10.00
2022-08-17T10:51:58.954Z,13.30
2022-08-17T10:55:06.516Z,9.90
2022-08-17T10:57:42.501Z,9.40
2022-08-17T11:00:37.525Z,9.40
2022-08-17T11:03:21.148Z,9.60
2022-08-17T11:06:01.118Z,9.60
2022-08-17T11:09:10.420Z,18.30
2022-08-17T11:12:07.352Z,12.60
2022-08-17T11:14:53.898Z,10.10
2022-08-17T11:17:42.927Z,10.30
2022-08-17T11:20:32.889Z,13.80
2022-08-17T11:23:26.695Z,9.10
2022-08-17T11:26:04.117Z,12.20
2022-08-17T11:28:52.652Z,8.60
2022-08-17T11:31:32.440Z,9.30
2022-08-17T11:34:26.651Z,9.90
2022-08-17T11:37:22.581Z,8.50
2022-08-17T11:40:35.594Z,16.50
2022-08-17T11:43:25.349Z,9.30
2022-08-17T11:46:17.130Z,11.90
2022-08-17T11:49:24.406Z,10.60
2022-08-17T11:52:36.565Z,10.30
2022-08-17T11:55:34.422Z,9.20
2022-08-17T11:58:37.518Z,11.60
2022-08-17T12:01:13.534Z,13.10
2022-08-17T12:03:55.551Z,10.10
2022-08-17T12:06:49.579Z,11.20
2022-08-17T12:09:25.091Z,9.80
2022-08-17T12:12:13.287Z,11.40
2022-08-17T12:17:52.354Z,12.50
2022-08-17T12:20:31.035Z,12.30
2022-08-17T12:23:10.822Z,13.30
2022-08-17T12:25:49.431Z,17.10
2022-08-17T12:28:27.589Z,11.80
2022-08-17T12:31:03.457Z,13.90
2022-08-17T12:33:37.473Z,14.00
2022-08-17T12:36:15.320Z,11.80
2022-08-17T12:38:57.308Z,10.90
2022-08-17T12:41:36.371Z,8.80
2022-08-17T12:44:14.253Z,9.70
2022-08-17T12:47:24.064Z,11.80
2022-08-17T12:50:05.878Z,10.90
2022-08-17T12:52:44.227Z,15.20
2022-08-17T12:55:36.815Z,10.20
2022-08-17T12:58:14.518Z,9.40
2022-08-17T13:00:56.664Z,15.10
2022-08-17T13:03:37.387Z,9.40
2022-08-17T13:06:36.064Z,12.30
2022-08-17T13:09:16.344Z,9.00
2022-08-17T13:11:55.225Z,10.80
2022-08-17T13:14:27.404Z,10.30
2022-08-17T13:17:04.388Z,12.60
2022-08-17T13:19:48.970Z,11.80
2022-08-17T13:22:26.431Z,9.40
2022-08-17T13:25:03.629Z,7.60
2022-08-17T13:27:36.123Z,9.10
2022-08-17T13:30:12.967Z,14.50
2022-08-17T13:32:47.365Z,9.70
2022-08-17T13:35:49.958Z,11.10
2022-08-17T13:38:45.804Z,11.20
2022-08-17T13:41:35.919Z,8.80
2022-08-17T13:44:34.647Z,9.90
2022-08-17T13:47:17.225Z,10.10
2022-08-17T13:49:54.286Z,8.80
2022-08-17T13:52:40.845Z,12.70
2022-08-17T13:55:21.420Z,9.70
2022-08-17T13:58:03.662Z,9.70
2022-08-17T14:00:40.483Z,11.70
2022-08-17T14:03:12.325Z,12.50
2022-08-17T14:05:45.997Z,10.10
2022-08-17T14:08:19.916Z,16.80
2022-08-17T14:10:58.453Z,12.10
2022-08-17T14:13:30.319Z,10.20
2022-08-17T14:16:02.235Z,9.30
2022-08-17T14:18:55.559Z,8.40
2022-08-17T14:21:26.039Z,7.90
2022-08-17T14:23:59.027Z,9.20
2022-08-17T14:26:31.450Z,12.70
2022-08-17T14:29:03.340Z,10.10
2022-08-17T14:31:53.327Z,10.20
2022-08-17T14:34:27.001Z,12.70
2022-08-17T14:36:59.041Z,9.30
2022-08-17T14:39:30.932Z,9.80
2022-08-17T14:42:03.101Z,9.80
2022-08-17T14:44:35.198Z,9.30
2022-08-17T14:47:13.914Z,9.60
2022-08-17T14:49:47.602Z,10.90
2022-08-17T14:52:22.018Z,8.40
2022-08-17T14:54:55.104Z,10.00
2022-08-17T14:57:34.038Z,12.30
2022-08-17T15:00:09.389Z,12.10
2022-08-17T15:02:49.286Z,8.90
2022-08-17T15:05:21.844Z,9.30
2022-08-17T15:07:56.443Z,14.30
2022-08-17T15:10:29.388Z,8.70
2022-08-17T15:13:01.625Z,9.40
2022-08-17T15:15:34.206Z,8.80
2022-08-17T15:18:06.075Z,9.80
2022-08-17T15:20:38.829Z,10.00
2022-08-17T15:23:12.926Z,12.30
2022-08-17T15:25:46.013Z,9.30
2022-08-17T15:28:18.552Z,10.80
2022-08-17T15:30:51.020Z,15.10
2022-08-17T15:33:30.410Z,11.00
2022-08-17T15:36:06.560Z,8.20
2022-08-17T15:38:40.370Z,9.30
2022-08-17T15:41:15.371Z,14.60
2022-08-17T15:43:48.681Z,12.60
2022-08-17T15:46:23.356Z,12.20
2022-08-17T15:48:59.091Z,8.50
2022-08-17T15:51:33.961Z,12.50
2022-08-17T15:54:19.249Z,13.30
2022-08-17T15:56:55.258Z,11.90
2022-08-17T15:59:31.061Z,13.90
2022-08-17T16:03:13.014Z,9.20
2022-08-17T16:04:57.315Z,11.70
2022-08-17T16:07:30.464Z,15.60
2022-08-17T16:10:02.421Z,11.40
2022-08-17T16:12:34.756Z,10.40
2022-08-17T16:15:08.674Z,13.80
2022-08-17T16:17:41.571Z,13.40
2022-08-17T16:20:19.904Z,9.60
2022-08-17T16:22:53.140Z,12.50
2022-08-17T16:25:40.298Z,13.10
2022-08-17T16:28:21.911Z,12.70
2022-08-17T16:30:53.740Z,17.30
2022-08-17T16:33:25.551Z,8.20
2022-08-17T16:35:57.412Z,14.60
2022-08-17T16:38:29.358Z,17.10
2022-08-17T16:41:01.625Z,13.00
2022-08-17T16:43:34.093Z,11.80
2022-08-17T16:46:06.314Z,12.80
2022-08-17T16:48:39.325Z,13.30
2022-08-17T16:51:11.105Z,11.90
2022-08-17T16:53:44.293Z,24.80
2022-08-17T16:56:19.340Z,19.80
2022-08-17T16:58:52.571Z,17.30
2022-08-17T17:01:25.044Z,13.60
2022-08-17T17:03:59.808Z,12.70
2022-08-17T17:06:45.158Z,14.90
2022-08-17T17:09:22.456Z,8.60
2022-08-17T17:12:00.816Z,12.80
2022-08-17T17:14:36.871Z,10.50
2022-08-17T17:17:22.040Z,9.20
2022-08-17T17:20:00.766Z,32.00
2022-08-17T17:22:39.102Z,15.30
2022-08-17T17:25:20.483Z,16.40
2022-08-17T17:28:00.909Z,12.50
2022-08-17T17:30:40.036Z,13.70
2022-08-17T17:33:17.603Z,14.80
2022-08-17T17:35:55.059Z,10.90
2022-08-17T17:38:32.526Z,12.30
2022-08-17T17:41:07.939Z,13.20
2022-08-17T17:43:41.074Z,11.20
2022-08-17T17:46:27.997Z,15.50
2022-08-17T17:49:01.496Z,11.20
2022-08-17T17:52:06.332Z,12.80
2022-08-17T17:54:48.227Z,12.20
2022-08-17T17:57:31.024Z,11.80
2022-08-17T18:00:08.782Z,10.10
2022-08-17T18:03:11.131Z,24.70
2022-08-17T18:06:03.314Z,14.70
2022-08-17T18:08:49.685Z,13.70
2022-08-17T18:11:53.980Z,14.50
2022-08-17T18:14:46.864Z,10.80
2022-08-17T18:17:20.421Z,21.70
2022-08-17T18:19:54.261Z,12.40
2022-08-17T18:22:27.834Z,15.80
2022-08-17T18:24:59.851Z,12.90
2022-08-17T18:27:37.925Z,13.70
2022-08-17T18:30:28.999Z,11.60
2022-08-17T18:33:23.277Z,15.10
2022-08-17T18:35:59.327Z,12.40
2022-08-17T18:38:35.287Z,13.40
2022-08-17T18:41:20.343Z,14.50
2022-08-17T18:44:07.565Z,18.10
2022-08-17T18:46:40.943Z,12.80
2022-08-17T18:49:33.144Z,20.30
2022-08-17T18:52:15.984Z,15.70
2022-08-17T18:55:08.681Z,19.60
2022-08-17T18:57:44.215Z,18.10
2022-08-17T19:00:31.340Z,19.90
2022-08-17T19:03:07.135Z,17.90
2022-08-17T19:05:47.244Z,17.00
2022-08-17T19:08:22.978Z,16.50
2022-08-17T19:10:59.734Z,18.60
2022-08-17T19:13:36.539Z,16.40
2022-08-17T19:16:16.029Z,17.60
2022-08-17T19:18:52.249Z,20.40
2022-08-17T19:21:28.329Z,18.80
2022-08-17T19:24:06.638Z,20.10
2022-08-17T19:26:50.755Z,23.40
2022-08-17T19:29:32.209Z,20.70
2022-08-17T19:32:10.077Z,25.60
2022-08-17T19:34:44.768Z,22.70
2022-08-17T19:37:30.991Z,18.10
2022-08-17T19:40:29.253Z,22.50
2022-08-17T19:43:17.828Z,18.90
2022-08-17T19:45:59.517Z,17.90
2022-08-17T19:48:53.162Z,21.70
2022-08-17T19:51:31.650Z,19.60
2022-08-17T19:54:09.716Z,17.10
2022-08-17T19:56:48.857Z,26.10
2022-08-17T19:59:35.612Z,21.60
2022-08-17T20:02:42.582Z,23.30
2022-08-17T20:05:18.643Z,18.90
2022-08-17T20:07:55.396Z,19.10
2022-08-17T20:10:36.802Z,19.80
2022-08-17T20:13:16.240Z,20.20
2022-08-17T20:15:49.730Z,20.20
2022-08-17T20:18:30.443Z,22.10
2022-08-17T20:21:07.566Z,25.20
2022-08-17T20:24:00.944Z,21.90
2022-08-17T20:26:58.438Z,19.70
2022-08-17T20:29:40.375Z,21.20
2022-08-17T20:32:27.851Z,20.70
2022-08-17T20:35:22.451Z,23.60
2022-08-17T20:37:59.079Z,31.90
2022-08-17T20:40:35.348Z,54.80
2022-08-17T20:43:39.987Z,29.90
2022-08-17T20:46:26.861Z,25.30
2022-08-17T20:49:15.704Z,25.40
2022-08-17T20:52:02.391Z,22.00
2022-08-17T20:54:53.653Z,25.10
2022-08-17T20:57:49.434Z,25.50
2022-08-17T21:00:42.769Z,21.30
2022-08-17T21:03:50.801Z,24.70
2022-08-17T21:06:27.450Z,23.20
2022-08-17T21:09:20.921Z,20.40
2022-08-17T21:12:04.012Z,28.70
2022-08-17T21:15:02.866Z,24.40
2022-08-17T21:17:49.951Z,27.10
2022-08-17T21:20:39.637Z,25.60
2022-08-17T21:23:43.190Z,23.40
2022-08-17T21:26:30.671Z,20.30
2022-08-17T21:29:32.045Z,21.20
2022-08-17T21:32:24.185Z,19.20
2022-08-17T21:35:25.133Z,18.30
2022-08-17T21:38:03.634Z,25.90
2022-08-17T21:40:36.346Z,20.20
2022-08-17T21:43:28.213Z,19.70
2022-08-17T21:46:08.320Z,18.90
2022-08-17T21:48:48.223Z,17.60
2022-08-17T21:51:24.289Z,17.90
2022-08-17T21:54:00.819Z,18.80
2022-08-17T22:00:31.109Z,20.80
2022-08-17T22:03:05.267Z,17.70
2022-08-17T22:05:40.187Z,20.80
2022-08-17T22:08:19.773Z,18.10
2022-08-17T22:11:00.463Z,19.30
2022-08-17T22:13:32.626Z,18.70
2022-08-17T22:16:29.049Z,21.00
2022-08-17T22:19:02.037Z,23.60
2022-08-17T22:21:33.890Z,29.90
2022-08-17T22:24:18.094Z,21.50
2022-08-17T22:27:07.956Z,19.20
2022-08-17T22:29:57.185Z,19.20
2022-08-17T22:32:41.892Z,18.60
2022-08-17T22:35:34.446Z,25.40
2022-08-17T22:38:31.582Z,18.90
2022-08-17T22:41:30.247Z,19.40
2022-08-17T22:44:10.238Z,20.20
2022-08-17T22:46:50.792Z,25.90
2022-08-17T22:49:29.299Z,19.10
2022-08-17T22:52:08.850Z,19.70
2022-08-17T22:54:58.678Z,22.60
2022-08-17T22:57:48.636Z,26.60
2022-08-17T23:00:37.361Z,19.20
2022-08-17T23:03:13.443Z,22.20
2022-08-17T23:05:49.034Z,22.10
2022-08-17T23:08:21.540Z,19.40
2022-08-17T23:10:53.342Z,22.20
2022-08-17T23:13:25.186Z,20.40
2022-08-17T23:15:57.244Z,20.30
2022-08-17T23:18:29.091Z,21.20
2022-08-17T23:21:02.077Z,19.30
2022-08-17T23:23:37.275Z,22.40
2022-08-17T23:26:11.363Z,20.70
2022-08-17T23:28:43.941Z,19.90
2022-08-17T23:31:25.684Z,21.60
2022-08-17T23:33:59.292Z,23.20
2022-08-17T23:36:31.780Z,22.60
2022-08-17T23:39:06.657Z,19.50
2022-08-17T23:41:40.151Z,19.40
2022-08-17T23:44:13.229Z,21.70
2022-08-17T23:46:45.425Z,23.50
2022-08-17T23:49:17.230Z,20.70
2022-08-17T23:51:50.507Z,18.70
2022-08-17T23:54:25.414Z,24.00
